KASN

Talladega Municipal Airport

Talladega, Alabama, USA
METAR KASN 170735Z AUTO 00000KT 10SM CLR 00/M01 A3024 RMK AO2 T00001013
Observed Flight Rules
Dec-17 @ 07:35 UTC (34 minutes ago) Visual Flight Rules
Wind Visibility Clouds
Calm 10 miles
  • Clear skies
Temperatures Readings
Current 0°C / 32°F
Dewpoint -1°C / 30°F
Humidity 93%
Altimeter 30.24" Hg
Pressure 1024 hPa
Elevation 162
METAR KASN 170735Z AUTO 00000KT 10SM CLR 00/M01 A3024 RMK AO2 T00001013
Observed Flight Rules
Dec-17 @ 07:35 UTC
(34 minutes ago)
VFR
Wind Visibility
Calm 10 miles
Clouds
  • Clear skies
Temperature Dewpoint
0°C / 32°F -1°C / 30°F
Humidity Altimeter Pressure
93% 30.24" Hg 1024 hPa